sensor_id;sensor_type;location;lat;lon;timestamp;P1;durP1;ratioP1;P2;durP2;ratioP2
39772;SDS011;25451;51.960;6.250;2023-06-10T00:01:56;7.88;;;4.82;;
39772;SDS011;25451;51.960;6.250;2023-06-10T00:04:25;8.73;;;4.90;;
39772;SDS011;25451;51.960;6.250;2023-06-10T00:06:52;7.05;;;5.20;;
39772;SDS011;25451;51.960;6.250;2023-06-10T00:09:18;7.72;;;5.10;;
39772;SDS011;25451;51.960;6.250;2023-06-10T00:11:46;8.38;;;4.95;;
39772;SDS011;25451;51.960;6.250;2023-06-10T00:14:11;9.17;;;5.10;;
39772;SDS011;25451;51.960;6.250;2023-06-10T00:16:36;9.40;;;4.97;;
39772;SDS011;25451;51.960;6.250;2023-06-10T00:19:03;7.32;;;4.95;;
39772;SDS011;25451;51.960;6.250;2023-06-10T00:21:30;7.93;;;5.00;;
39772;SDS011;25451;51.960;6.250;2023-06-10T00:24:05;7.78;;;4.72;;
39772;SDS011;25451;51.960;6.250;2023-06-10T00:26:32;7.97;;;4.93;;
39772;SDS011;25451;51.960;6.250;2023-06-10T00:28:58;8.52;;;4.75;;
39772;SDS011;25451;51.960;6.250;2023-06-10T00:31:24;10.23;;;4.77;;
39772;SDS011;25451;51.960;6.250;2023-06-10T00:33:51;7.55;;;4.40;;
39772;SDS011;25451;51.960;6.250;2023-06-10T00:36:16;8.20;;;4.53;;
39772;SDS011;25451;51.960;6.250;2023-06-10T00:38:42;7.23;;;4.73;;
39772;SDS011;25451;51.960;6.250;2023-06-10T00:41:07;7.30;;;4.40;;
39772;SDS011;25451;51.960;6.250;2023-06-10T00:43:32;8.30;;;4.30;;
39772;SDS011;25451;51.960;6.250;2023-06-10T00:45:58;8.57;;;4.67;;
39772;SDS011;25451;51.960;6.250;2023-06-10T00:48:24;9.30;;;4.70;;
39772;SDS011;25451;51.960;6.250;2023-06-10T00:50:49;7.77;;;4.70;;
39772;SDS011;25451;51.960;6.250;2023-06-10T00:53:15;8.25;;;4.45;;
39772;SDS011;25451;51.960;6.250;2023-06-10T00:55:41;7.73;;;4.77;;
39772;SDS011;25451;51.960;6.250;2023-06-10T00:58:07;6.45;;;4.65;;
39772;SDS011;25451;51.960;6.250;2023-06-10T01:00:32;8.83;;;4.70;;
39772;SDS011;25451;51.960;6.250;2023-06-10T01:02:57;7.73;;;4.30;;
39772;SDS011;25451;51.960;6.250;2023-06-10T01:05:23;8.30;;;4.60;;
39772;SDS011;25451;51.960;6.250;2023-06-10T01:10:45;8.03;;;4.50;;
39772;SDS011;25451;51.960;6.250;2023-06-10T01:13:15;9.38;;;4.75;;
39772;SDS011;25451;51.960;6.250;2023-06-10T01:15:41;9.40;;;4.50;;
39772;SDS011;25451;51.960;6.250;2023-06-10T01:18:07;9.53;;;4.40;;
39772;SDS011;25451;51.960;6.250;2023-06-10T01:20:35;8.35;;;4.38;;
39772;SDS011;25451;51.960;6.250;2023-06-10T01:23:05;7.68;;;4.45;;
39772;SDS011;25451;51.960;6.250;2023-06-10T01:25:31;9.27;;;4.50;;
39772;SDS011;25451;51.960;6.250;2023-06-10T01:30:45;7.20;;;4.53;;
39772;SDS011;25451;51.960;6.250;2023-06-10T01:33:12;9.25;;;4.30;;
39772;SDS011;25451;51.960;6.250;2023-06-10T01:35:41;7.78;;;4.65;;
39772;SDS011;25451;51.960;6.250;2023-06-10T01:38:08;6.80;;;4.28;;
39772;SDS011;25451;51.960;6.250;2023-06-10T01:40:35;8.00;;;4.80;;
39772;SDS011;25451;51.960;6.250;2023-06-10T01:43:01;7.13;;;4.30;;
39772;SDS011;25451;51.960;6.250;2023-06-10T01:45:27;8.10;;;4.72;;
39772;SDS011;25451;51.960;6.250;2023-06-10T01:47:52;7.43;;;4.50;;
39772;SDS011;25451;51.960;6.250;2023-06-10T01:50:17;9.30;;;4.70;;
39772;SDS011;25451;51.960;6.250;2023-06-10T01:52:43;7.93;;;4.30;;
39772;SDS011;25451;51.960;6.250;2023-06-10T01:55:08;7.07;;;4.37;;
39772;SDS011;25451;51.960;6.250;2023-06-10T01:57:33;8.10;;;4.43;;
39772;SDS011;25451;51.960;6.250;2023-06-10T01:59:58;7.27;;;4.20;;
39772;SDS011;25451;51.960;6.250;2023-06-10T02:02:24;8.03;;;4.20;;
39772;SDS011;25451;51.960;6.250;2023-06-10T02:04:49;8.10;;;4.20;;
39772;SDS011;25451;51.960;6.250;2023-06-10T02:07:15;7.40;;;4.07;;
39772;SDS011;25451;51.960;6.250;2023-06-10T02:09:40;8.97;;;4.30;;
39772;SDS011;25451;51.960;6.250;2023-06-10T02:12:05;7.93;;;4.30;;
39772;SDS011;25451;51.960;6.250;2023-06-10T02:14:32;8.55;;;4.40;;
39772;SDS011;25451;51.960;6.250;2023-06-10T02:16:58;6.43;;;3.83;;
39772;SDS011;25451;51.960;6.250;2023-06-10T02:19:23;7.73;;;4.03;;
39772;SDS011;25451;51.960;6.250;2023-06-10T02:21:50;8.40;;;4.20;;
39772;SDS011;25451;51.960;6.250;2023-06-10T02:24:15;7.47;;;3.95;;
39772;SDS011;25451;51.960;6.250;2023-06-10T02:26:41;7.93;;;4.37;;
39772;SDS011;25451;51.960;6.250;2023-06-10T02:29:06;7.37;;;3.80;;
39772;SDS011;25451;51.960;6.250;2023-06-10T02:31:31;8.07;;;4.00;;
39772;SDS011;25451;51.960;6.250;2023-06-10T02:33:58;7.50;;;4.40;;
39772;SDS011;25451;51.960;6.250;2023-06-10T02:36:23;9.73;;;4.37;;
39772;SDS011;25451;51.960;6.250;2023-06-10T02:38:49;8.27;;;3.97;;
39772;SDS011;25451;51.960;6.250;2023-06-10T02:41:14;8.43;;;4.00;;
39772;SDS011;25451;51.960;6.250;2023-06-10T02:43:40;9.10;;;3.95;;
39772;SDS011;25451;51.960;6.250;2023-06-10T02:46:05;8.47;;;3.80;;
39772;SDS011;25451;51.960;6.250;2023-06-10T02:48:30;8.37;;;3.70;;
39772;SDS011;25451;51.960;6.250;2023-06-10T02:50:56;8.60;;;3.83;;
39772;SDS011;25451;51.960;6.250;2023-06-10T02:53:21;8.97;;;4.00;;
39772;SDS011;25451;51.960;6.250;2023-06-10T02:55:46;9.53;;;4.00;;
39772;SDS011;25451;51.960;6.250;2023-06-10T02:58:12;8.00;;;3.70;;
39772;SDS011;25451;51.960;6.250;2023-06-10T03:00:37;8.30;;;3.90;;
39772;SDS011;25451;51.960;6.250;2023-06-10T03:03:05;10.68;;;3.78;;
39772;SDS011;25451;51.960;6.250;2023-06-10T03:05:30;8.57;;;3.90;;
39772;SDS011;25451;51.960;6.250;2023-06-10T03:07:56;9.90;;;3.77;;
39772;SDS011;25451;51.960;6.250;2023-06-10T03:10:21;6.50;;;3.93;;
39772;SDS011;25451;51.960;6.250;2023-06-10T03:12:47;8.50;;;4.00;;
39772;SDS011;25451;51.960;6.250;2023-06-10T03:15:12;6.63;;;3.63;;
39772;SDS011;25451;51.960;6.250;2023-06-10T03:17:38;9.80;;;3.80;;
39772;SDS011;25451;51.960;6.250;2023-06-10T03:20:03;8.23;;;4.40;;
39772;SDS011;25451;51.960;6.250;2023-06-10T03:22:34;13.00;;;4.10;;
39772;SDS011;25451;51.960;6.250;2023-06-10T03:24:59;9.93;;;3.90;;
39772;SDS011;25451;51.960;6.250;2023-06-10T03:27:24;9.50;;;3.92;;
39772;SDS011;25451;51.960;6.250;2023-06-10T03:29:50;6.63;;;3.77;;
39772;SDS011;25451;51.960;6.250;2023-06-10T03:32:15;7.30;;;3.53;;
39772;SDS011;25451;51.960;6.250;2023-06-10T03:34:40;8.63;;;3.83;;
39772;SDS011;25451;51.960;6.250;2023-06-10T03:37:06;8.53;;;4.00;;
39772;SDS011;25451;51.960;6.250;2023-06-10T03:39:32;9.90;;;4.07;;
39772;SDS011;25451;51.960;6.250;2023-06-10T03:41:57;7.93;;;4.03;;
39772;SDS011;25451;51.960;6.250;2023-06-10T03:44:24;8.93;;;3.77;;
39772;SDS011;25451;51.960;6.250;2023-06-10T03:46:50;7.85;;;4.35;;
39772;SDS011;25451;51.960;6.250;2023-06-10T03:49:16;9.77;;;3.80;;
39772;SDS011;25451;51.960;6.250;2023-06-10T03:51:42;8.03;;;3.70;;
39772;SDS011;25451;51.960;6.250;2023-06-10T03:54:07;7.80;;;3.88;;
39772;SDS011;25451;51.960;6.250;2023-06-10T03:56:33;7.93;;;3.90;;
39772;SDS011;25451;51.960;6.250;2023-06-10T03:58:58;8.67;;;3.53;;
39772;SDS011;25451;51.960;6.250;2023-06-10T04:01:24;7.40;;;3.80;;
39772;SDS011;25451;51.960;6.250;2023-06-10T04:03:49;7.40;;;4.03;;
39772;SDS011;25451;51.960;6.250;2023-06-10T04:06:16;10.82;;;4.00;;
39772;SDS011;25451;51.960;6.250;2023-06-10T04:08:42;9.63;;;4.03;;
39772;SDS011;25451;51.960;6.250;2023-06-10T04:11:08;11.00;;;4.10;;
39772;SDS011;25451;51.960;6.250;2023-06-10T04:13:33;7.78;;;3.90;;
39772;SDS011;25451;51.960;6.250;2023-06-10T04:15:59;8.93;;;3.90;;
39772;SDS011;25451;51.960;6.250;2023-06-10T04:18:24;7.83;;;4.00;;
39772;SDS011;25451;51.960;6.250;2023-06-10T04:20:50;7.63;;;3.90;;
39772;SDS011;25451;51.960;6.250;2023-06-10T04:23:16;9.47;;;3.80;;
39772;SDS011;25451;51.960;6.250;2023-06-10T04:25:41;6.65;;;3.92;;
39772;SDS011;25451;51.960;6.250;2023-06-10T04:28:06;9.30;;;3.87;;
39772;SDS011;25451;51.960;6.250;2023-06-10T04:30:32;8.10;;;4.00;;
39772;SDS011;25451;51.960;6.250;2023-06-10T04:32:57;7.83;;;3.83;;
39772;SDS011;25451;51.960;6.250;2023-06-10T04:35:22;10.13;;;4.07;;
39772;SDS011;25451;51.960;6.250;2023-06-10T04:37:48;8.33;;;3.80;;
39772;SDS011;25451;51.960;6.250;2023-06-10T04:40:13;9.13;;;4.25;;
39772;SDS011;25451;51.960;6.250;2023-06-10T04:42:39;8.30;;;4.10;;
39772;SDS011;25451;51.960;6.250;2023-06-10T04:45:05;9.23;;;4.13;;
39772;SDS011;25451;51.960;6.250;2023-06-10T04:47:31;9.97;;;4.30;;
39772;SDS011;25451;51.960;6.250;2023-06-10T04:49:59;8.77;;;3.80;;
39772;SDS011;25451;51.960;6.250;2023-06-10T04:52:25;9.48;;;4.15;;
39772;SDS011;25451;51.960;6.250;2023-06-10T04:54:50;9.60;;;4.23;;
39772;SDS011;25451;51.960;6.250;2023-06-10T04:57:15;8.20;;;4.00;;
39772;SDS011;25451;51.960;6.250;2023-06-10T04:59:41;9.37;;;3.93;;
39772;SDS011;25451;51.960;6.250;2023-06-10T05:02:06;11.37;;;4.50;;
39772;SDS011;25451;51.960;6.250;2023-06-10T05:04:32;6.85;;;3.63;;
39772;SDS011;25451;51.960;6.250;2023-06-10T05:06:57;7.57;;;4.13;;
39772;SDS011;25451;51.960;6.250;2023-06-10T05:09:22;9.93;;;3.87;;
39772;SDS011;25451;51.960;6.250;2023-06-10T05:11:48;8.80;;;4.30;;
39772;SDS011;25451;51.960;6.250;2023-06-10T05:14:13;10.00;;;4.67;;
39772;SDS011;25451;51.960;6.250;2023-06-10T05:16:41;8.88;;;4.20;;
39772;SDS011;25451;51.960;6.250;2023-06-10T05:19:06;8.77;;;3.70;;
39772;SDS011;25451;51.960;6.250;2023-06-10T05:21:31;8.17;;;3.83;;
39772;SDS011;25451;51.960;6.250;2023-06-10T05:23:57;8.87;;;4.17;;
39772;SDS011;25451;51.960;6.250;2023-06-10T05:26:22;7.43;;;4.10;;
39772;SDS011;25451;51.960;6.250;2023-06-10T05:28:48;8.07;;;4.30;;
39772;SDS011;25451;51.960;6.250;2023-06-10T05:31:13;8.40;;;4.40;;
39772;SDS011;25451;51.960;6.250;2023-06-10T05:33:38;7.93;;;4.10;;
39772;SDS011;25451;51.960;6.250;2023-06-10T05:36:04;11.53;;;4.23;;
39772;SDS011;25451;51.960;6.250;2023-06-10T05:38:30;9.88;;;4.35;;
39772;SDS011;25451;51.960;6.250;2023-06-10T05:40:55;7.97;;;3.90;;
39772;SDS011;25451;51.960;6.250;2023-06-10T05:43:21;8.00;;;4.20;;
39772;SDS011;25451;51.960;6.250;2023-06-10T05:45:47;8.82;;;4.10;;
39772;SDS011;25451;51.960;6.250;2023-06-10T05:48:12;7.53;;;4.00;;
39772;SDS011;25451;51.960;6.250;2023-06-10T05:50:38;9.20;;;4.17;;
39772;SDS011;25451;51.960;6.250;2023-06-10T05:53:07;9.15;;;4.40;;
39772;SDS011;25451;51.960;6.250;2023-06-10T05:55:39;9.23;;;4.20;;
39772;SDS011;25451;51.960;6.250;2023-06-10T05:58:05;10.10;;;4.35;;
39772;SDS011;25451;51.960;6.250;2023-06-10T06:00:30;8.80;;;4.30;;
39772;SDS011;25451;51.960;6.250;2023-06-10T06:02:55;8.27;;;4.23;;
39772;SDS011;25451;51.960;6.250;2023-06-10T06:05:22;7.90;;;4.03;;
39772;SDS011;25451;51.960;6.250;2023-06-10T06:07:47;8.37;;;4.20;;
39772;SDS011;25451;51.960;6.250;2023-06-10T06:10:13;10.57;;;4.20;;
39772;SDS011;25451;51.960;6.250;2023-06-10T06:12:38;8.27;;;4.07;;
39772;SDS011;25451;51.960;6.250;2023-06-10T06:15:03;10.77;;;4.33;;
39772;SDS011;25451;51.960;6.250;2023-06-10T06:17:29;9.40;;;4.25;;
39772;SDS011;25451;51.960;6.250;2023-06-10T06:19:54;7.07;;;3.77;;
39772;SDS011;25451;51.960;6.250;2023-06-10T06:22:20;9.30;;;4.60;;
39772;SDS011;25451;51.960;6.250;2023-06-10T06:24:47;8.75;;;4.10;;
39772;SDS011;25451;51.960;6.250;2023-06-10T06:27:12;11.37;;;4.17;;
39772;SDS011;25451;51.960;6.250;2023-06-10T06:29:37;8.93;;;4.30;;
39772;SDS011;25451;51.960;6.250;2023-06-10T06:32:03;9.57;;;4.07;;
39772;SDS011;25451;51.960;6.250;2023-06-10T06:34:28;9.13;;;3.70;;
39772;SDS011;25451;51.960;6.250;2023-06-10T06:36:54;7.83;;;4.23;;
39772;SDS011;25451;51.960;6.250;2023-06-10T06:39:19;9.63;;;4.60;;
39772;SDS011;25451;51.960;6.250;2023-06-10T06:41:44;7.35;;;4.07;;
39772;SDS011;25451;51.960;6.250;2023-06-10T06:44:09;7.77;;;3.90;;
39772;SDS011;25451;51.960;6.250;2023-06-10T06:46:35;8.50;;;3.87;;
39772;SDS011;25451;51.960;6.250;2023-06-10T06:49:00;9.07;;;4.17;;
39772;SDS011;25451;51.960;6.250;2023-06-10T06:51:25;8.60;;;4.17;;
39772;SDS011;25451;51.960;6.250;2023-06-10T06:53:51;8.57;;;4.20;;
39772;SDS011;25451;51.960;6.250;2023-06-10T06:56:18;8.98;;;4.20;;
39772;SDS011;25451;51.960;6.250;2023-06-10T06:58:44;7.07;;;4.20;;
39772;SDS011;25451;51.960;6.250;2023-06-10T07:01:09;8.23;;;3.97;;
39772;SDS011;25451;51.960;6.250;2023-06-10T07:03:34;7.07;;;4.00;;
39772;SDS011;25451;51.960;6.250;2023-06-10T07:06:00;8.37;;;4.10;;
39772;SDS011;25451;51.960;6.250;2023-06-10T07:08:25;11.77;;;4.50;;
39772;SDS011;25451;51.960;6.250;2023-06-10T07:10:50;9.13;;;4.33;;
39772;SDS011;25451;51.960;6.250;2023-06-10T07:13:16;7.87;;;4.00;;
39772;SDS011;25451;51.960;6.250;2023-06-10T07:15:41;8.77;;;4.70;;
39772;SDS011;25451;51.960;6.250;2023-06-10T07:18:06;13.63;;;4.30;;
39772;SDS011;25451;51.960;6.250;2023-06-10T07:20:32;8.27;;;3.87;;
39772;SDS011;25451;51.960;6.250;2023-06-10T07:22:57;8.43;;;3.83;;
39772;SDS011;25451;51.960;6.250;2023-06-10T07:25:22;7.50;;;4.20;;
39772;SDS011;25451;51.960;6.250;2023-06-10T07:27:47;6.60;;;4.10;;
39772;SDS011;25451;51.960;6.250;2023-06-10T07:30:13;6.20;;;3.73;;
39772;SDS011;25451;51.960;6.250;2023-06-10T07:32:38;6.93;;;3.50;;
39772;SDS011;25451;51.960;6.250;2023-06-10T07:35:05;11.03;;;4.07;;
39772;SDS011;25451;51.960;6.250;2023-06-10T07:37:33;6.75;;;3.75;;
39772;SDS011;25451;51.960;6.250;2023-06-10T07:39:58;8.57;;;3.70;;
39772;SDS011;25451;51.960;6.250;2023-06-10T07:42:23;7.33;;;3.90;;
39772;SDS011;25451;51.960;6.250;2023-06-10T07:44:49;8.90;;;4.00;;
39772;SDS011;25451;51.960;6.250;2023-06-10T07:47:14;8.47;;;3.60;;
39772;SDS011;25451;51.960;6.250;2023-06-10T07:49:39;8.37;;;3.77;;
39772;SDS011;25451;51.960;6.250;2023-06-10T07:52:05;7.80;;;4.03;;
39772;SDS011;25451;51.960;6.250;2023-06-10T07:54:31;7.22;;;3.90;;
39772;SDS011;25451;51.960;6.250;2023-06-10T07:56:57;7.13;;;4.00;;
39772;SDS011;25451;51.960;6.250;2023-06-10T07:59:22;7.70;;;4.00;;
39772;SDS011;25451;51.960;6.250;2023-06-10T08:01:47;9.00;;;4.00;;
39772;SDS011;25451;51.960;6.250;2023-06-10T08:04:13;6.73;;;4.00;;
39772;SDS011;25451;51.960;6.250;2023-06-10T08:06:38;12.40;;;4.30;;
39772;SDS011;25451;51.960;6.250;2023-06-10T08:09:04;6.43;;;3.83;;
39772;SDS011;25451;51.960;6.250;2023-06-10T08:11:29;7.70;;;3.50;;
39772;SDS011;25451;51.960;6.250;2023-06-10T08:13:55;8.27;;;3.73;;
39772;SDS011;25451;51.960;6.250;2023-06-10T08:16:20;8.23;;;4.05;;
39772;SDS011;25451;51.960;6.250;2023-06-10T08:18:45;9.23;;;3.63;;
39772;SDS011;25451;51.960;6.250;2023-06-10T08:21:11;6.30;;;3.50;;
39772;SDS011;25451;51.960;6.250;2023-06-10T08:23:36;7.93;;;3.67;;
39772;SDS011;25451;51.960;6.250;2023-06-10T08:26:02;9.10;;;4.23;;
39772;SDS011;25451;51.960;6.250;2023-06-10T08:28:27;6.03;;;3.40;;
39772;SDS011;25451;51.960;6.250;2023-06-10T08:30:52;7.63;;;3.70;;
39772;SDS011;25451;51.960;6.250;2023-06-10T08:33:18;7.20;;;3.40;;
39772;SDS011;25451;51.960;6.250;2023-06-10T08:35:43;6.27;;;3.60;;
39772;SDS011;25451;51.960;6.250;2023-06-10T08:38:09;6.77;;;3.53;;
39772;SDS011;25451;51.960;6.250;2023-06-10T08:40:34;6.27;;;3.67;;
39772;SDS011;25451;51.960;6.250;2023-06-10T08:45:32;8.52;;;3.90;;
39772;SDS011;25451;51.960;6.250;2023-06-10T08:48:05;8.63;;;3.30;;
39772;SDS011;25451;51.960;6.250;2023-06-10T08:50:34;5.88;;;3.40;;
39772;SDS011;25451;51.960;6.250;2023-06-10T08:53:04;7.95;;;3.38;;
39772;SDS011;25451;51.960;6.250;2023-06-10T08:55:35;9.80;;;3.30;;
39772;SDS011;25451;51.960;6.250;2023-06-10T08:58:02;7.15;;;3.40;;
39772;SDS011;25451;51.960;6.250;2023-06-10T09:00:28;7.57;;;3.00;;
39772;SDS011;25451;51.960;6.250;2023-06-10T09:02:55;9.68;;;3.55;;
39772;SDS011;25451;51.960;6.250;2023-06-10T09:05:21;5.63;;;3.60;;
39772;SDS011;25451;51.960;6.250;2023-06-10T09:07:47;4.87;;;3.30;;
39772;SDS011;25451;51.960;6.250;2023-06-10T09:10:13;4.88;;;3.15;;
39772;SDS011;25451;51.960;6.250;2023-06-10T09:12:38;6.90;;;3.37;;
39772;SDS011;25451;51.960;6.250;2023-06-10T09:15:04;6.40;;;3.20;;
39772;SDS011;25451;51.960;6.250;2023-06-10T09:17:30;8.02;;;3.22;;
39772;SDS011;25451;51.960;6.250;2023-06-10T09:19:56;7.13;;;2.90;;
39772;SDS011;25451;51.960;6.250;2023-06-10T09:22:22;7.90;;;3.50;;
39772;SDS011;25451;51.960;6.250;2023-06-10T09:24:48;7.90;;;3.22;;
39772;SDS011;25451;51.960;6.250;2023-06-10T09:27:14;7.27;;;3.00;;
39772;SDS011;25451;51.960;6.250;2023-06-10T09:29:52;5.95;;;3.30;;
39772;SDS011;25451;51.960;6.250;2023-06-10T09:32:18;6.40;;;3.00;;
39772;SDS011;25451;51.960;6.250;2023-06-10T09:34:44;7.10;;;3.13;;
39772;SDS011;25451;51.960;6.250;2023-06-10T09:37:10;6.00;;;3.30;;
39772;SDS011;25451;51.960;6.250;2023-06-10T09:39:38;7.60;;;3.30;;
39772;SDS011;25451;51.960;6.250;2023-06-10T09:42:16;7.43;;;3.20;;
39772;SDS011;25451;51.960;6.250;2023-06-10T09:44:48;6.75;;;3.22;;
39772;SDS011;25451;51.960;6.250;2023-06-10T09:47:19;6.93;;;3.10;;
39772;SDS011;25451;51.960;6.250;2023-06-10T09:49:50;5.40;;;2.97;;
39772;SDS011;25451;51.960;6.250;2023-06-10T09:52:21;5.47;;;3.00;;
39772;SDS011;25451;51.960;6.250;2023-06-10T09:54:50;7.85;;;3.20;;
39772;SDS011;25451;51.960;6.250;2023-06-10T09:57:17;7.18;;;3.30;;
39772;SDS011;25451;51.960;6.250;2023-06-10T09:59:43;4.97;;;3.10;;
39772;SDS011;25451;51.960;6.250;2023-06-10T10:02:16;5.80;;;2.97;;
39772;SDS011;25451;51.960;6.250;2023-06-10T10:04:43;6.35;;;3.13;;
39772;SDS011;25451;51.960;6.250;2023-06-10T10:07:09;6.53;;;3.17;;
39772;SDS011;25451;51.960;6.250;2023-06-10T10:09:35;5.80;;;2.97;;
39772;SDS011;25451;51.960;6.250;2023-06-10T10:12:02;6.30;;;2.80;;
39772;SDS011;25451;51.960;6.250;2023-06-10T10:14:33;7.18;;;3.00;;
39772;SDS011;25451;51.960;6.250;2023-06-10T10:17:01;5.45;;;3.00;;
39772;SDS011;25451;51.960;6.250;2023-06-10T10:19:30;6.85;;;2.70;;
39772;SDS011;25451;51.960;6.250;2023-06-10T10:22:04;6.20;;;2.97;;
39772;SDS011;25451;51.960;6.250;2023-06-10T10:24:36;5.40;;;3.00;;
39772;SDS011;25451;51.960;6.250;2023-06-10T10:27:07;4.88;;;2.83;;
39772;SDS011;25451;51.960;6.250;2023-06-10T10:29:39;6.00;;;3.03;;
39772;SDS011;25451;51.960;6.250;2023-06-10T10:32:06;6.30;;;3.05;;
39772;SDS011;25451;51.960;6.250;2023-06-10T10:37:42;6.63;;;3.00;;
39772;SDS011;25451;51.960;6.250;2023-06-10T10:40:08;6.50;;;3.00;;
39772;SDS011;25451;51.960;6.250;2023-06-10T10:42:35;6.85;;;3.17;;
39772;SDS011;25451;51.960;6.250;2023-06-10T10:45:01;6.80;;;3.20;;
39772;SDS011;25451;51.960;6.250;2023-06-10T10:47:27;5.47;;;3.00;;
39772;SDS011;25451;51.960;6.250;2023-06-10T10:49:56;4.88;;;3.00;;
39772;SDS011;25451;51.960;6.250;2023-06-10T10:52:24;5.63;;;3.15;;
39772;SDS011;25451;51.960;6.250;2023-06-10T10:54:52;6.45;;;3.30;;
39772;SDS011;25451;51.960;6.250;2023-06-10T10:57:19;10.93;;;3.10;;
39772;SDS011;25451;51.960;6.250;2023-06-10T10:59:56;6.37;;;3.00;;
39772;SDS011;25451;51.960;6.250;2023-06-10T11:02:34;5.65;;;2.85;;
39772;SDS011;25451;51.960;6.250;2023-06-10T11:05:08;7.50;;;3.00;;
39772;SDS011;25451;51.960;6.250;2023-06-10T11:07:35;4.88;;;2.90;;
39772;SDS011;25451;51.960;6.250;2023-06-10T11:10:11;5.57;;;2.90;;
39772;SDS011;25451;51.960;6.250;2023-06-10T11:12:53;5.15;;;3.20;;
39772;SDS011;25451;51.960;6.250;2023-06-10T11:15:19;6.32;;;3.30;;
39772;SDS011;25451;51.960;6.250;2023-06-10T11:18:08;5.65;;;2.97;;
39772;SDS011;25451;51.960;6.250;2023-06-10T11:20:41;7.28;;;3.10;;
39772;SDS011;25451;51.960;6.250;2023-06-10T11:23:10;5.53;;;3.00;;
39772;SDS011;25451;51.960;6.250;2023-06-10T11:25:38;6.82;;;3.28;;
39772;SDS011;25451;51.960;6.250;2023-06-10T11:28:16;7.87;;;3.10;;
39772;SDS011;25451;51.960;6.250;2023-06-10T11:30:43;8.32;;;3.05;;
39772;SDS011;25451;51.960;6.250;2023-06-10T11:33:08;4.97;;;3.00;;
39772;SDS011;25451;51.960;6.250;2023-06-10T11:35:34;8.23;;;3.22;;
39772;SDS011;25451;51.960;6.250;2023-06-10T11:38:00;6.40;;;3.10;;
39772;SDS011;25451;51.960;6.250;2023-06-10T11:40:26;5.40;;;3.10;;
39772;SDS011;25451;51.960;6.250;2023-06-10T11:42:55;4.68;;;3.05;;
39772;SDS011;25451;51.960;6.250;2023-06-10T11:45:20;7.15;;;3.20;;
39772;SDS011;25451;51.960;6.250;2023-06-10T11:47:55;8.90;;;3.90;;
39772;SDS011;25451;51.960;6.250;2023-06-10T11:50:28;7.13;;;3.03;;
39772;SDS011;25451;51.960;6.250;2023-06-10T11:52:54;6.00;;;3.20;;
39772;SDS011;25451;51.960;6.250;2023-06-10T11:55:20;5.32;;;3.03;;
39772;SDS011;25451;51.960;6.250;2023-06-10T11:57:46;5.43;;;3.10;;
39772;SDS011;25451;51.960;6.250;2023-06-10T12:00:12;4.80;;;3.28;;
39772;SDS011;25451;51.960;6.250;2023-06-10T12:02:38;6.25;;;2.97;;
39772;SDS011;25451;51.960;6.250;2023-06-10T12:05:10;5.77;;;2.90;;
39772;SDS011;25451;51.960;6.250;2023-06-10T12:07:39;5.15;;;3.28;;
39772;SDS011;25451;51.960;6.250;2023-06-10T12:10:04;5.63;;;3.20;;
39772;SDS011;25451;51.960;6.250;2023-06-10T12:12:30;5.87;;;3.20;;
39772;SDS011;25451;51.960;6.250;2023-06-10T12:14:56;4.90;;;3.20;;
39772;SDS011;25451;51.960;6.250;2023-06-10T12:19:57;6.13;;;3.33;;
39772;SDS011;25451;51.960;6.250;2023-06-10T12:22:23;6.07;;;3.25;;
39772;SDS011;25451;51.960;6.250;2023-06-10T12:24:59;6.15;;;3.20;;
39772;SDS011;25451;51.960;6.250;2023-06-10T12:27:26;7.88;;;3.40;;
39772;SDS011;25451;51.960;6.250;2023-06-10T12:29:55;6.18;;;3.75;;
39772;SDS011;25451;51.960;6.250;2023-06-10T12:32:21;5.50;;;3.40;;
39772;SDS011;25451;51.960;6.250;2023-06-10T12:35:01;6.03;;;3.22;;
39772;SDS011;25451;51.960;6.250;2023-06-10T12:37:29;6.85;;;3.42;;
39772;SDS011;25451;51.960;6.250;2023-06-10T12:39:55;5.77;;;3.10;;
39772;SDS011;25451;51.960;6.250;2023-06-10T12:42:22;4.57;;;3.20;;
39772;SDS011;25451;51.960;6.250;2023-06-10T12:44:52;5.10;;;3.20;;
39772;SDS011;25451;51.960;6.250;2023-06-10T12:47:18;6.65;;;3.50;;
39772;SDS011;25451;51.960;6.250;2023-06-10T12:49:43;6.10;;;3.43;;
39772;SDS011;25451;51.960;6.250;2023-06-10T12:52:09;6.77;;;3.43;;
39772;SDS011;25451;51.960;6.250;2023-06-10T12:54:34;6.73;;;3.57;;
39772;SDS011;25451;51.960;6.250;2023-06-10T12:57:00;5.60;;;3.15;;
39772;SDS011;25451;51.960;6.250;2023-06-10T12:59:26;7.37;;;3.47;;
39772;SDS011;25451;51.960;6.250;2023-06-10T13:01:52;5.68;;;3.20;;
39772;SDS011;25451;51.960;6.250;2023-06-10T13:04:19;6.10;;;3.13;;
39772;SDS011;25451;51.960;6.250;2023-06-10T13:06:45;6.10;;;3.27;;
39772;SDS011;25451;51.960;6.250;2023-06-10T13:09:12;5.38;;;3.28;;
39772;SDS011;25451;51.960;6.250;2023-06-10T13:11:37;6.00;;;3.53;;
39772;SDS011;25451;51.960;6.250;2023-06-10T13:14:03;7.57;;;3.20;;
39772;SDS011;25451;51.960;6.250;2023-06-10T13:16:30;6.93;;;3.60;;
39772;SDS011;25451;51.960;6.250;2023-06-10T13:18:56;8.23;;;3.50;;
39772;SDS011;25451;51.960;6.250;2023-06-10T13:21:21;6.50;;;3.33;;
39772;SDS011;25451;51.960;6.250;2023-06-10T13:23:46;6.10;;;3.57;;
39772;SDS011;25451;51.960;6.250;2023-06-10T13:26:16;6.65;;;3.53;;
39772;SDS011;25451;51.960;6.250;2023-06-10T13:28:42;6.18;;;3.47;;
39772;SDS011;25451;51.960;6.250;2023-06-10T13:31:10;8.43;;;3.70;;
39772;SDS011;25451;51.960;6.250;2023-06-10T13:33:35;6.17;;;3.23;;
39772;SDS011;25451;51.960;6.250;2023-06-10T13:36:01;6.13;;;3.40;;
39772;SDS011;25451;51.960;6.250;2023-06-10T13:38:26;8.47;;;3.77;;
39772;SDS011;25451;51.960;6.250;2023-06-10T13:40:51;8.10;;;3.40;;
39772;SDS011;25451;51.960;6.250;2023-06-10T13:43:17;6.33;;;3.43;;
39772;SDS011;25451;51.960;6.250;2023-06-10T13:45:42;5.27;;;3.33;;
39772;SDS011;25451;51.960;6.250;2023-06-10T13:48:07;6.30;;;3.53;;
39772;SDS011;25451;51.960;6.250;2023-06-10T13:50:33;7.10;;;3.63;;
39772;SDS011;25451;51.960;6.250;2023-06-10T13:52:59;7.72;;;3.47;;
39772;SDS011;25451;51.960;6.250;2023-06-10T13:55:24;9.03;;;3.80;;
39772;SDS011;25451;51.960;6.250;2023-06-10T13:57:49;5.93;;;3.70;;
39772;SDS011;25451;51.960;6.250;2023-06-10T14:00:15;7.67;;;3.70;;
39772;SDS011;25451;51.960;6.250;2023-06-10T14:02:41;6.30;;;3.38;;
39772;SDS011;25451;51.960;6.250;2023-06-10T14:05:06;7.87;;;3.73;;
39772;SDS011;25451;51.960;6.250;2023-06-10T14:07:33;5.32;;;3.42;;
39772;SDS011;25451;51.960;6.250;2023-06-10T14:09:58;5.57;;;3.80;;
39772;SDS011;25451;51.960;6.250;2023-06-10T14:12:24;6.35;;;3.70;;
39772;SDS011;25451;51.960;6.250;2023-06-10T14:14:49;7.30;;;3.63;;
39772;SDS011;25451;51.960;6.250;2023-06-10T14:17:15;6.37;;;3.40;;
39772;SDS011;25451;51.960;6.250;2023-06-10T14:19:40;6.83;;;3.60;;
39772;SDS011;25451;51.960;6.250;2023-06-10T14:22:05;7.60;;;3.50;;
39772;SDS011;25451;51.960;6.250;2023-06-10T14:24:32;6.88;;;3.65;;
39772;SDS011;25451;51.960;6.250;2023-06-10T14:26:57;6.23;;;3.90;;
39772;SDS011;25451;51.960;6.250;2023-06-10T14:29:23;8.75;;;3.95;;
39772;SDS011;25451;51.960;6.250;2023-06-10T14:31:48;5.80;;;3.67;;
39772;SDS011;25451;51.960;6.250;2023-06-10T14:34:14;6.00;;;3.70;;
39772;SDS011;25451;51.960;6.250;2023-06-10T14:36:39;5.22;;;3.67;;
39772;SDS011;25451;51.960;6.250;2023-06-10T14:39:05;6.20;;;3.90;;
39772;SDS011;25451;51.960;6.250;2023-06-10T14:41:31;5.37;;;3.80;;
39772;SDS011;25451;51.960;6.250;2023-06-10T14:43:56;7.85;;;3.63;;
39772;SDS011;25451;51.960;6.250;2023-06-10T14:46:21;7.30;;;3.90;;
39772;SDS011;25451;51.960;6.250;2023-06-10T14:48:47;9.50;;;3.80;;
39772;SDS011;25451;51.960;6.250;2023-06-10T14:51:12;7.00;;;3.70;;
39772;SDS011;25451;51.960;6.250;2023-06-10T14:53:37;5.60;;;3.60;;
39772;SDS011;25451;51.960;6.250;2023-06-10T14:56:03;8.20;;;3.40;;
39772;SDS011;25451;51.960;6.250;2023-06-10T14:58:28;6.37;;;3.77;;